Simcoe, Canada
Current Conditions -  °F | °C
As of 2:00 AM on Thursday 23 Oct 2014 (Local Time) from CYHM Reporting Station
Clear Clear  
Wind Chill: 39°   Ceiling: Unl
Heat Index: 43°   Visibility: 15mi
Dew Point: 39°   Wind: 7mph
Humidity: 87%   Direction: 350°N
Pressure: 30.19"   Gusts: NA
Location:  42.84°N, 80.31°W
Report Text: CYHM 230600Z 35006KT 15SM SKC 06/04 A3019 RMK SLP228
Loading
Personal Weather Stations






























Interactive Weather Map
Tropical Storm Tracking
New forecast layout! Learn more

10-Day Weather Forecast

Advertisements
Track Severe Weather on mobile